Mason Valley Wildlife Refuge, Nevada Weather observations

Data are for 10 minute period ending at time listed.
 Day   Time   Solar   Ave.   Ave.  Ave.  Vector  Max.   Baro.   Total    
  of    of     Rad.   Air    Rel.  Wind   Wind   Wind  Press.  Precip.   
Year   Day            Temp.  Hum.  Speed  Dir.   Gust                    
2016   (PST)  Kw/m2    F      %     mph   deg.    mph    mb.     in.     
-------------------------------------------------------------------------
 268   12:50   0.71   69.0    31    5.1   267     9.1   875.9    0.00 
 268   13:00   0.68   69.6    31    4.9   291    11.4   875.8    0.00 
 268   13:10   0.68   69.6    30    4.5   232     8.0   875.8    0.00 
 268   13:20   0.66   69.8    29    3.7   239     9.1   875.7    0.00 
 268   13:30   0.66   70.6    29    3.8   284     6.6   875.6    0.00 
 268   13:40   0.66   71.0    27    4.4   326     9.3   875.6    0.00 
 268   13:50   0.64   70.3    27    5.0   355    10.7   875.5    0.00 
 268   14:00   0.62   71.1    27    2.2   355     6.2   875.5    0.00 
 268   14:10   0.60   71.7    27    4.4   273     9.3   875.4    0.00 
 268   14:20   0.58   72.0    24    5.6    57    10.2   875.4    0.00 
 268   14:30   0.56   71.8    22    8.4    39    13.7   875.4    0.00 
 268   14:40   0.54   71.6    22    5.5    62    11.5   875.4    0.00 
 268   14:50   0.52   71.8    22    7.6    70    12.3   875.3    0.00 
 268   15:00   0.49   71.9    21    2.9    14     5.3   875.3    0.00 
 268   15:10   0.47   72.5    23    4.0    66     9.2   875.3    0.00 
 268   15:20   0.44   72.4    22    5.5    59     9.5   875.4    0.00 
 268   15:30   0.41   72.4    23    6.4    43    10.4   875.4    0.00 
 268   15:40   0.38   72.2    22    6.5    46    11.0   875.4    0.00 
 268   15:50   0.35   72.3    21    6.2    46    11.4   875.4    0.00 
 268   16:00   0.32   72.3    20    4.9    13    12.1   875.4    0.00 
 268   16:10   0.30   72.5    20    4.7    20     9.5   875.4    0.00 
 268   16:20   0.27   72.2    21    6.7    53    10.6   875.3    0.00 
 268   16:30   0.24   71.9    20    5.7    65     8.3   875.2    0.00 
 268   16:40   0.21   71.8    20    6.5    67    10.1   875.3    0.00 
 268   16:50   0.18   71.5    20    6.4    66     9.5   875.4    0.00 
 268   17:00   0.15   71.1    20    6.2    66     9.6   875.5    0.00 
 268   17:10   0.12   70.8    21    5.5    56     7.7   875.6    0.00 
 268   17:20   0.09   69.9    24    4.4    55     6.0   875.8    0.00 
 268   17:30   0.07   69.1    25    4.6    56     6.0   875.8    0.00 
 268   17:40   0.03   67.8    26    4.5    60     5.6   876.0    0.00 
 268   17:50   0.01   66.4    27    4.6    59     6.8   876.0    0.00 
 268   18:00   0.00   64.9    31    5.3    49     7.1   876.2    0.00 
 268   18:10   0.00   63.6    32    3.7    74     5.5   876.3    0.00 
 268   18:20   0.00   62.4    30    2.6    80     3.3   876.4    0.00 
 268   18:30   0.00   62.5    29    2.9    83     3.4   876.6    0.00 
 268   18:40   0.00   62.0    29    2.3    78     3.1   876.7    0.00 
 268   18:50   0.00   60.5    31    0.9    77     1.6   876.8    0.00 
 268   19:00   0.00   59.4    31    1.6    84     2.8   877.0    0.00 
 268   19:10   0.00   59.6    30    2.9    89     4.1   877.2    0.00 
 268   19:20   0.00   61.0    28    3.0    53     3.7   877.3    0.00 
 268   19:30   0.00   61.0    29    2.2    54     3.9   877.5    0.00 
 268   19:40   0.00   61.5    28    1.8     4     2.6   877.7    0.00 
 268   19:50   0.00   60.6    32    1.4   345     3.9   877.8    0.00 
 268   20:00   0.00   53.3    42    3.6   234     5.4   877.9    0.00 
 268   20:10   0.00   53.5    42    3.0   259     3.5   877.9    0.00 
 268   20:20   0.00   53.3    41    2.7   254     3.3   877.9    0.00 
 268   20:30   0.00   51.3    47    2.7   234     3.9   877.9    0.00 
 268   20:40   0.00   51.2    46    3.3   255     4.9   877.8    0.00 
 268   20:50   0.00   51.5    46    3.7   256     4.8   877.9    0.00 
 268   21:00   0.00   56.2    36    3.9   264     4.7   877.9    0.00 
 268   21:10   0.00   56.8    34    3.6   257     4.2   878.0    0.00 
 268   21:20   0.00   56.5    34    2.8   257     4.2   878.0    0.00 
 268   21:30   0.00   56.7    35    1.4   251     2.5   878.0    0.00 
 268   21:40   0.00   50.1    46    1.8   160     2.9   878.2    0.00 
 268   21:50   0.00   47.2    48    2.0    32     3.6   878.2    0.00 
 268   22:00   0.00   49.0    47    1.1    58     2.0   878.1    0.00 
 268   22:10   0.00   47.0    46    0.5   147     1.6   878.2    0.00 
 268   22:20   0.00   47.3    47    2.3    98     4.8   878.2    0.00 
 268   22:30   0.00   45.2    52    1.6   128     3.7   878.1    0.00 
 268   22:40   0.00   43.3    55    3.7   133     6.2   878.1    0.00 
 268   22:50   0.00   43.8    57    0.8   119     2.3   878.1    0.00 
 268   23:00   0.00   44.9    52    1.3   161     3.9   878.1    0.00 
 268   23:10   0.00   45.4    52    4.5   171     5.8   878.2    0.00 
 268   23:20   0.00   50.2    43    4.4   140     6.3   878.2    0.00 
 268   23:30   0.00   50.3    41    2.6   134     3.7   878.2    0.00 
 268   23:40   0.00   48.0    45    0.6   143     2.0   878.1    0.00 
 268   23:50   0.00   45.2    53    1.0   162     2.3   878.2    0.00 
 269    0:00   0.00   42.7    61    2.1   275     5.4   878.3    0.00 
 269    0:10   0.00   43.4    59    3.4    12     5.0   878.2    0.00 
 269    0:20   0.00   42.9    53    0.4    54     1.9   878.3    0.00 
 269    0:30   0.00   40.9    57    3.4   150     5.6   878.3    0.00 
 269    0:40   0.00   39.6    65    3.5   261     5.0   878.3    0.00 
 269    0:50   0.00   40.7    65    0.4   229     2.1   878.4    0.00 
 269    1:00   0.00   38.9    62    3.7   128     5.8   878.5    0.00 
 269    1:10   0.00   40.8    58    1.2   165     3.4   878.5    0.00 
 269    1:20   0.00   40.1    60    1.5   204     3.3   878.6    0.00 
 269    1:30   0.00   39.4    65    2.9   232     4.0   878.7    0.00 
 269    1:40   0.00   40.0    63    2.4    30     4.4   878.8    0.00 
 269    1:50   0.00   41.7    58    3.0    35     5.3   878.8    0.00 
 269    2:00   0.00   41.0    62    0.5   335     2.7   878.8    0.00 
 269    2:10   0.00   39.6    60    1.8   183     3.5   878.8    0.00 
 269    2:20   0.00   38.7    62    0.2   258     2.7   878.7    0.00 
 269    2:30   0.00   36.9    62    2.3   108     3.9   878.7    0.00 
 269    2:40   0.00   36.4    62    1.6   135     3.1   878.6    0.00 
 269    2:50   0.00   36.2    70    0.4    45     2.0   878.5    0.00 
 269    3:00   0.00   36.4    68    0.3   136     1.4   878.6    0.00 
 269    3:10   0.00   36.4    67    1.6   123     3.8   878.5    0.00 
 269    3:20   0.00   37.2    67    1.0   103     3.6   878.6    0.00 
 269    3:30   0.00   37.7    67    0.0   109     0.4   878.5    0.00 
 269    3:40   0.00   38.0    65    0.1   208     0.6   878.4    0.00 
 269    3:50   0.00   37.8    69    0.5   208     2.3   878.4    0.00 
 269    4:00   0.00   36.7    65    0.0   208     0.5   878.6    0.00 
 269    4:10   0.00   36.2    66    0.3   208     1.9   878.6    0.00 
 269    4:20   0.00   34.9    71    3.0   205     5.1   878.6    0.00 
 269    4:30   0.00   33.8    72    2.6   172     5.0   878.6    0.00 
 269    4:40   0.00   34.9    71    0.8   176     1.7   878.7    0.00 
 269    4:50   0.00   35.0    69    1.8   184     3.6   878.7    0.00 
 269    5:00   0.00   35.2    68    1.5   220     3.8   878.8    0.00 
 269    5:10   0.00   34.5    68    1.8   153     3.2   878.8    0.00 
 269    5:20   0.00   33.6    66    1.5   149     3.1   878.9    0.00 
 269    5:30   0.00   34.3    67    1.9    19     3.9   879.1    0.00 
 269    5:40   0.00   33.4    69    4.0   355     5.0   879.2    0.00 
 269    5:50   0.01   36.0    74    2.0   352     3.7   879.2    0.00 
 269    6:00   0.01   33.9    72    1.3   217     3.1   879.4    0.00 
 269    6:10   0.03   33.7    74    0.5   241     2.6   879.5    0.00 
 269    6:20   0.05   34.0    76    2.8   227     3.7   879.5    0.00 
 269    6:30   0.07   36.5    77    0.3   241     1.5   879.6    0.00 
 269    6:40   0.09   39.0    72    1.2   202     2.7   879.8    0.00 
 269    6:50   0.12   40.7    70    3.2   195     4.5   879.9    0.00 
 269    7:00   0.14   44.6    58    1.0   179     3.3   880.1    0.00 
 269    7:10   0.17   48.3    48    1.4   201     2.6   880.3    0.00 
 269    7:20   0.20   49.7    44    1.6   167     2.5   880.4    0.00 
 269    7:30   0.23   52.6    40    0.2   182     1.5   880.4    0.00 
 269    7:40   0.26   54.3    38    0.8    27     2.2   880.5    0.00 
 269    7:50   0.29   54.6    37    0.8   272     1.7   880.6    0.00 
 269    8:00   0.32   56.6    35    0.4   359     2.3   880.6    0.00 
 269    8:10   0.34   59.0    31    0.6   243     2.9   880.7    0.00 
 269    8:20   0.37   58.5    31    1.9   187     4.4   880.8    0.00 
 269    8:30   0.40   60.1    31    0.8   288     3.3   880.8    0.00 
 269    8:40   0.43   61.5    29    0.5    32     1.8   880.8    0.00 
 269    8:50   0.45   63.0    28    0.5   112     1.4   880.7    0.00 
 269    9:00   0.48   64.0    27    1.0   347     3.6   880.6    0.00 
 269    9:10   0.50   65.0    25    1.3    57     3.7   880.6    0.00 
 269    9:20   0.53   65.5    24    1.5   346     3.7   880.5    0.00 
 269    9:30   0.55   65.7    23    2.1    32     3.9   880.4    0.00 
 269    9:40   0.57   66.4    23    1.6    44     5.5   880.3    0.00 
 269    9:50   0.59   67.0    23    3.0   341     6.4   880.2    0.00 
 269   10:00   0.42   67.8    22    2.6   255     8.3   880.0    0.00 
 269   10:10   0.63   68.3    22    2.5    20     7.2   879.9    0.00 
 269   10:20   0.64   68.5    22    2.4    56     5.3   879.7    0.00 
 269   10:30   0.66   69.4    21    3.3   316     7.4   879.5    0.00 
 269   10:40   0.67   70.6    20    3.5   235     6.5   879.4    0.00 
 269   10:50   0.68   70.7    20    3.7   241     8.5   879.3    0.00 
 269   11:00   0.69   71.0    20    4.1   319     6.4   879.2    0.00 
 269   11:10   0.70   71.2    20    3.0   322     9.2   879.2    0.00 
 269   11:20   0.71   71.6    19    4.1   354     9.0   879.1    0.00 
 269   11:30   0.72   72.0    19    4.0    61     7.5   879.0    0.00 
 269   11:40   0.72   72.0    18    5.1    54     9.6   878.8    0.00 
 269   11:50   0.73   72.7    18    4.8    22    12.6   878.8    0.00 
 269   12:00   0.73   72.8    16    9.8    37    14.2   878.6    0.00 
 269   12:10   0.73   72.6    15    7.4    42    11.7   878.5    0.00 
 269   12:20   0.73   72.8    13    5.4    72    11.5   878.4    0.00 
 269   12:30   0.72   73.3    14    4.3    48     9.9   878.3    0.00 
 269   12:40   0.72   73.8    14    8.0    55    12.3   878.2    0.00 

Return to Mason Valley Wildlife Refuge graphs page.


Western Regional Climate Center,wrcc@dri.edu